Khanom, Thailand

3:08 PM ICT on October 21, 2014 (GMT +0700)
Samui | Change Station
CLOSE
Current Station
Airport
Location: Samui,
Elevation: 66 ft
Nearby Weather Stations

Elev 66 ft 9.55 °N, 100.06 °E | Updated 8 minutes ago

Mostly Cloudy
Mostly Cloudy
88 °F
Feels Like 100 °F
N
8
Wind Variable Wind from ENE

Today
High -- | Low -- °F
--% Chance of Precip.
Yesterday
High -- | Low -- °F
Precip. -- in
6:08 AM 6:01 PM
Waning Crescent, 7% visible
Pressure 29.86 in
Visibility 6.2 miles
Clouds Few 2000 ft
Mostly Cloudy 30000 ft
Heat Index 100 °F
Dew Point 77 °F
Humidity 70%
Rainfall 0.00 in
Snow Depth Not available.
UV 4 out of 12
Pollen Not available.
Air Quality Not available.
Flu Activity Not available.
METAR VTSM 210800Z 06007KT 9999 FEW020 BKN300 31/25 Q1011 A2987

More Conditions Fewer Conditions

Pressure 29.86 in
Visibility 6.2 miles
Clouds Few 2000 ft
Mostly Cloudy 30000 ft
Heat Index 100 °F
Dew Point 77 °F
Humidity 70%
Rainfall 0.00 in
Snow Depth Not available.
UV 4 out of 12
Pollen Not available.
Air Quality Not available.
Flu Activity Not available.
METAR VTSM 210800Z 06007KT 9999 FEW020 BKN300 31/25 Q1011 A2987

More Conditions Fewer Conditions

10-Day Weather Forecast

Almanac

Astronomy

Oct. 21, 2014 Rise Set
Actual Time 6:08 AM ICT 6:01 PM ICT
Civil Twilight 5:47 AM ICT 6:22 PM ICT
Nautical Twilight 5:22 AM ICT 6:47 PM ICT
Astronomical Twilight 4:58 AM ICT 7:12 PM ICT
Moon 3:53 AM ICT 4:13 PM ICT
Length of Visible Light 12h 35m
Length of Day
11h 52m
Tomorrow will be 0m 28s shorter.
Waning Crescent, 7% of the Moon is Illuminated
Today
Waning Crescent
Oct 23
New
Oct 30
First Quarter
Nov 6
Full
Nov 14
Last Quarter

Yesterday's Extremes

Country Highs Country Lows

Community

WunderPhotos

Upload Photos

1,763,619 photos uploaded!

Nearby

Snow Depth

Not available.

Earthquake Activity

City Distance Mag. Time & Date
No recent earthquake activity has been reported nearby.
Minimum magnitude displayed is 2.5.

Coastal Water Temperatures

Place Temperature
No Stations Reporting

Nearby Weather Stations